Time;durP1;ratioP1;P1;durP2;ratioP2;P2;SDS_P1;SDS_P2;PMS_P1;PMS_P2;Temp;Humidity;BMP_temperature;BMP_pressure;BME280_temperature;BME280_humidity;BME280_pressure;Samples;Min_cycle;Max_cycle;Signal;HPM_P1;HPM_P2
2023/06/30 00:01:02;;;;;;;5.55;5.05;;;;;;;16.99;52.81;93988.03;5050354;28;20059;-74
2023/06/30 00:03:28;;;;;;;5.70;5.20;;;;;;;17.00;53.00;93992.28;5053450;28;20076;-75
2023/06/30 00:05:53;;;;;;;7.93;5.65;;;;;;;16.96;53.07;93980.69;5052068;28;20033;-74
2023/06/30 00:08:19;;;;;;;6.30;5.72;;;;;;;16.95;53.32;93992.56;5053758;28;20199;-73
2023/06/30 00:10:44;;;;;;;6.07;5.47;;;;;;;16.97;53.01;93987.59;5051111;28;20032;-74
2023/06/30 00:13:10;;;;;;;8.75;6.55;;;;;;;16.86;53.57;93988.50;5054361;28;20488;-74
2023/06/30 00:15:35;;;;;;;6.10;5.60;;;;;;;16.81;53.57;93986.84;5050273;28;20044;-74
2023/06/30 00:18:00;;;;;;;8.20;6.20;;;;;;;16.79;54.05;94001.75;5049808;28;20037;-74
2023/06/30 00:20:26;;;;;;;7.55;5.60;;;;;;;16.67;54.21;93986.50;5052618;28;20041;-74
2023/06/30 00:22:53;;;;;;;11.35;6.45;;;;;;;16.65;54.42;94000.28;5051421;28;20029;-74
2023/06/30 00:25:18;;;;;;;7.38;6.60;;;;;;;16.65;54.38;93986.84;5051795;28;20108;-76
2023/06/30 00:27:44;;;;;;;8.35;6.55;;;;;;;16.66;54.74;94003.75;5051441;28;20027;-74
2023/06/30 00:30:10;;;;;;;6.72;6.10;;;;;;;16.69;54.57;94005.72;5053865;28;20044;-74
2023/06/30 00:32:35;;;;;;;7.40;6.70;;;;;;;16.52;54.70;93968.50;5051554;28;20941;-73
2023/06/30 00:35:00;;;;;;;6.85;5.95;;;;;;;16.70;54.76;94001.91;5052032;28;20028;-74
2023/06/30 00:37:26;;;;;;;7.80;6.35;;;;;;;16.74;54.63;93992.81;5051650;28;20032;-74
2023/06/30 00:40:14;;;;;;;7.07;6.38;;;;;;;16.74;54.65;93997.41;5049931;28;20016;-74
2023/06/30 00:42:41;;;;;;;7.68;6.38;;;;;;;16.78;54.43;93998.28;5051805;28;20068;-73
2023/06/30 00:45:06;;;;;;;6.53;5.85;;;;;;;16.66;54.66;93985.72;5051819;28;20521;-73
2023/06/30 00:47:32;;;;;;;6.75;6.05;;;;;;;16.56;54.71;93991.63;5051614;28;20036;-74
2023/06/30 00:49:58;;;;;;;8.63;6.60;;;;;;;16.67;54.54;94000.69;5051711;28;20041;-75
2023/06/30 00:52:24;;;;;;;6.68;6.00;;;;;;;16.52;54.61;93982.69;5050978;28;20032;-75
2023/06/30 00:54:49;;;;;;;9.43;6.90;;;;;;;16.62;54.71;93990.22;5040675;28;20028;-74
2023/06/30 00:57:15;;;;;;;7.97;6.38;;;;;;;16.59;54.46;93979.38;5051709;28;20550;-74
2023/06/30 00:59:40;;;;;;;6.80;6.20;;;;;;;16.65;54.57;93999.50;5055663;28;20086;-73
2023/06/30 01:02:12;;;;;;;6.80;6.20;;;;;;;16.68;54.70;93996.88;5050552;28;20033;-74
2023/06/30 01:04:43;;;;;;;7.72;7.00;;;;;;;16.65;54.84;94000.28;5051740;28;20044;-74
2023/06/30 01:07:17;;;;;;;6.88;6.13;;;;;;;16.57;54.74;93995.09;5052444;28;20513;-73
2023/06/30 01:09:53;;;;;;;10.73;6.13;;;;;;;16.06;54.44;93898.31;5051859;28;20049;-74
2023/06/30 01:12:20;;;;;;;6.60;5.88;;;;;;;16.67;54.45;93991.88;5052601;28;20130;-75
2023/06/30 01:14:47;;;;;;;6.78;6.03;;;;;;;16.59;54.78;93990.13;5051490;28;20508;-74
2023/06/30 01:17:14;;;;;;;7.80;5.93;;;;;;;16.42;55.24;93991.25;5053837;28;20464;-74
2023/06/30 01:19:44;;;;;;;8.38;6.00;;;;;;;16.40;55.00;93984.66;5050228;28;20044;-74
2023/06/30 01:22:41;;;;;;;6.13;5.63;;;;;;;16.53;54.64;93980.75;5051738;28;20020;-74
2023/06/30 01:25:10;;;;;;;6.40;5.80;;;;;;;16.57;54.30;93989.72;5052432;28;20033;-74
2023/06/30 01:27:39;;;;;;;7.07;6.38;;;;;;;16.44;54.97;93988.22;5050801;28;20595;-74
2023/06/30 01:30:06;;;;;;;6.75;6.03;;;;;;;16.40;54.89;93976.59;5052295;28;20127;-75
2023/06/30 01:32:32;;;;;;;6.97;6.38;;;;;;;16.49;54.67;93990.66;5049001;28;20036;-73
2023/06/30 01:34:57;;;;;;;6.43;5.82;;;;;;;16.35;54.77;93968.81;5049891;28;20029;-74
2023/06/30 01:37:22;;;;;;;8.77;7.60;;;;;;;16.37;54.71;93971.94;5048800;28;20044;-74
2023/06/30 01:39:48;;;;;;;8.45;6.22;;;;;;;16.34;55.02;93978.78;5053432;28;20031;-74
2023/06/30 01:42:14;;;;;;;6.35;5.85;;;;;;;16.26;55.01;93983.16;5049997;28;20032;-74
2023/06/30 01:44:40;;;;;;;7.63;6.03;;;;;;;16.18;54.84;93953.81;5049979;28;20059;-74
2023/06/30 01:47:07;;;;;;;6.93;5.57;;;;;;;16.19;55.13;93966.84;5049517;28;20519;-74
2023/06/30 01:49:34;;;;;;;6.50;6.00;;;;;;;16.17;55.87;93971.03;5051350;28;20382;-74
2023/06/30 01:52:00;;;;;;;5.78;5.28;;;;;;;16.26;55.29;93971.63;5052831;28;20046;-74
2023/06/30 01:54:25;;;;;;;6.75;6.05;;;;;;;16.25;55.15;93965.50;5050637;28;20024;-73
2023/06/30 01:56:51;;;;;;;6.57;5.97;;;;;;;16.22;55.03;93958.13;5044942;28;20041;-74
2023/06/30 01:59:16;;;;;;;9.88;6.22;;;;;;;16.23;55.28;93978.47;5052289;28;20439;-74
2023/06/30 02:01:42;;;;;;;6.38;5.88;;;;;;;16.20;55.10;93957.69;5050193;28;20032;-74
2023/06/30 02:04:09;;;;;;;6.63;6.03;;;;;;;16.18;55.08;93953.81;5050752;28;20021;-74
2023/06/30 02:06:35;;;;;;;8.75;5.97;;;;;;;16.16;55.44;93967.56;5050527;28;20632;-74
2023/06/30 02:09:00;;;;;;;6.20;5.68;;;;;;;16.16;55.48;93967.56;5051358;28;20033;-73
2023/06/30 02:11:26;;;;;;;8.35;5.53;;;;;;;15.97;55.47;93964.75;5049875;28;20033;-74
2023/06/30 02:13:51;;;;;;;7.03;5.47;;;;;;;15.97;55.45;93959.38;5050974;28;20553;-74
2023/06/30 02:16:16;;;;;;;5.45;4.95;;;;;;;15.98;55.08;93957.50;5051223;28;20039;-74
2023/06/30 02:18:42;;;;;;;5.65;5.05;;;;;;;16.10;54.96;93974.28;5050762;28;20109;-74
2023/06/30 02:21:08;;;;;;;7.57;5.57;;;;;;;16.01;54.82;93975.56;5049289;28;20488;-74
2023/06/30 02:23:33;;;;;;;6.60;6.00;;;;;;;15.87;55.15;93965.25;5051331;28;20086;-74
2023/06/30 02:25:58;;;;;;;5.35;4.95;;;;;;;15.86;54.73;93963.69;5051142;28;20028;-74
2023/06/30 02:28:24;;;;;;;5.90;5.40;;;;;;;15.93;54.60;93974.59;5049848;28;20400;-74
2023/06/30 02:30:49;;;;;;;6.03;4.95;;;;;;;16.00;54.88;93976.69;5051010;28;20107;-75
2023/06/30 02:33:15;;;;;;;6.75;4.78;;;;;;;15.89;55.08;93962.97;5052003;28;20439;-74
2023/06/30 02:35:41;;;;;;;7.68;5.43;;;;;;;15.81;55.51;93972.75;5049373;28;20028;-74
2023/06/30 02:38:07;;;;;;;6.30;5.55;;;;;;;15.87;55.38;93978.66;5052311;28;20045;-74
2023/06/30 02:40:32;;;;;;;6.07;5.50;;;;;;;15.87;55.17;93970.59;5050086;28;20071;-75
2023/06/30 02:42:58;;;;;;;6.60;5.90;;;;;;;15.91;54.97;93976.84;5056099;28;20074;-74
2023/06/30 02:45:24;;;;;;;6.07;5.00;;;;;;;15.89;55.00;93969.13;5053915;28;20098;-74
2023/06/30 02:47:49;;;;;;;5.95;5.35;;;;;;;15.84;55.00;93974.75;5056781;28;20056;-75
2023/06/30 02:50:15;;;;;;;6.45;5.43;;;;;;;15.66;55.16;93937.84;5052796;28;20055;-74
2023/06/30 02:52:40;;;;;;;6.30;5.38;;;;;;;15.66;55.59;93952.03;5053942;28;20032;-74
2023/06/30 02:55:06;;;;;;;5.78;5.22;;;;;;;15.70;55.30;93960.16;5055113;28;20020;-73
2023/06/30 02:57:32;;;;;;;6.50;5.55;;;;;;;15.65;55.54;93955.03;5052064;28;20032;-74
2023/06/30 02:59:57;;;;;;;7.45;4.90;;;;;;;15.55;56.23;93958.97;5054797;28;20062;-74
2023/06/30 03:02:22;;;;;;;7.68;6.30;;;;;;;15.64;55.79;93961.53;5055486;28;20048;-74
2023/06/30 03:04:48;;;;;;;5.85;5.35;;;;;;;15.65;55.44;93952.34;5051649;28;20025;-74
2023/06/30 03:07:14;;;;;;;6.47;5.93;;;;;;;15.66;55.52;93949.34;5057051;28;20465;-74
2023/06/30 03:09:39;;;;;;;6.28;5.68;;;;;;;15.61;55.89;93944.22;5053430;28;20048;-74
2023/06/30 03:12:05;;;;;;;6.45;5.85;;;;;;;15.69;55.80;93961.31;5055074;28;20037;-73
2023/06/30 03:14:31;;;;;;;8.48;6.03;;;;;;;15.65;55.75;93947.00;5055421;28;20032;-74
2023/06/30 03:16:56;;;;;;;7.18;6.00;;;;;;;15.71;55.89;93956.38;5055745;28;20028;-75
2023/06/30 03:19:21;;;;;;;6.03;5.15;;;;;;;15.55;56.27;93947.50;5053091;28;20109;-74
2023/06/30 03:21:47;;;;;;;6.05;5.55;;;;;;;15.60;56.65;93955.28;5055193;28;20031;-75
2023/06/30 03:24:12;;;;;;;6.88;6.18;;;;;;;15.58;56.42;93938.78;5052779;28;20041;-74
2023/06/30 03:26:38;;;;;;;6.65;6.05;;;;;;;15.69;57.09;93955.94;5049175;28;20435;-75
2023/06/30 03:29:03;;;;;;;6.93;6.32;;;;;;;15.66;57.21;93954.72;5052650;28;20261;-74
2023/06/30 03:31:29;;;;;;;6.75;6.15;;;;;;;15.61;57.33;93957.63;5054358;28;20027;-74
2023/06/30 03:33:54;;;;;;;5.95;5.45;;;;;;;15.52;57.77;93948.16;5054423;28;20433;-73
2023/06/30 03:36:19;;;;;;;10.00;6.43;;;;;;;15.57;58.17;93961.34;5055094;28;20044;-73
2023/06/30 03:38:45;;;;;;;8.32;6.70;;;;;;;15.54;58.52;93959.34;5053089;28;20094;-75
2023/06/30 03:41:10;;;;;;;7.10;6.50;;;;;;;15.59;58.59;93957.22;5054439;28;20404;-74
2023/06/30 03:43:35;;;;;;;8.90;8.00;;;;;;;15.64;58.33;93950.81;5053457;28;20019;-75
2023/06/30 03:46:01;;;;;;;8.95;8.05;;;;;;;15.69;58.04;93950.59;5053749;28;20029;-75
2023/06/30 03:48:27;;;;;;;9.70;7.50;;;;;;;15.81;58.02;93969.28;5054394;28;20028;-75
2023/06/30 03:50:53;;;;;;;10.02;8.40;;;;;;;15.87;57.77;93959.88;5055452;28;20537;-74
2023/06/30 03:53:19;;;;;;;8.70;7.22;;;;;;;15.90;57.93;93959.19;5052907;28;20047;-74
2023/06/30 03:55:44;;;;;;;12.23;8.65;;;;;;;16.06;57.66;93968.06;5050786;28;20033;-74
2023/06/30 03:58:09;;;;;;;9.32;8.43;;;;;;;16.09;57.73;93969.25;5053239;28;20028;-74
2023/06/30 04:00:35;;;;;;;9.93;8.93;;;;;;;16.14;57.81;93969.00;5055468;28;20036;-72
2023/06/30 04:03:00;;;;;;;9.38;8.10;;;;;;;16.15;57.83;93967.88;5052515;28;20121;-73
2023/06/30 04:05:26;;;;;;;10.32;9.32;;;;;;;16.05;57.97;93955.75;5053982;28;20040;-73
2023/06/30 04:07:51;;;;;;;11.73;8.32;;;;;;;16.22;57.97;93979.59;5051181;28;20037;-72
2023/06/30 04:10:17;;;;;;;9.85;8.93;;;;;;;16.23;58.37;93967.72;5054573;28;20460;-73
2023/06/30 04:12:43;;;;;;;9.75;8.30;;;;;;;16.21;57.77;93970.00;5053338;28;20931;-72
2023/06/30 04:15:10;;;;;;;12.77;8.98;;;;;;;16.27;57.73;93967.84;5053731;28;20040;-73
2023/06/30 04:17:39;;;;;;;10.63;9.57;;;;;;;16.28;57.49;93961.34;5049868;28;20105;-72
2023/06/30 04:20:09;;;;;;;13.15;9.60;;;;;;;16.49;57.24;93969.16;5047093;28;20328;-74
2023/06/30 04:22:37;;;;;;;11.15;9.98;;;;;;;16.29;58.42;93971.72;5050363;28;20722;-74
2023/06/30 04:25:04;;;;;;;12.18;9.52;;;;;;;16.17;58.09;93979.84;5054682;28;20484;-74
2023/06/30 04:27:30;;;;;;;10.93;9.82;;;;;;;15.92;58.75;93965.00;5052451;28;20044;-74
2023/06/30 04:29:55;;;;;;;11.15;10.05;;;;;;;15.87;59.34;93967.94;5054237;28;20408;-74
2023/06/30 04:32:21;;;;;;;13.05;10.27;;;;;;;16.27;58.94;93973.19;5051187;28;20528;-75
2023/06/30 04:34:46;;;;;;;15.57;10.15;;;;;;;16.28;58.85;93969.41;5053280;28;20025;-74
2023/06/30 04:37:11;;;;;;;13.07;10.23;;;;;;;16.48;58.95;93967.59;5050798;28;20445;-74
2023/06/30 04:39:37;;;;;;;16.42;9.85;;;;;;;16.50;59.12;93970.72;5053100;28;20037;-75
2023/06/30 04:42:03;;;;;;;11.40;10.27;;;;;;;16.19;59.63;93945.41;5053649;28;20421;-74
2023/06/30 04:44:29;;;;;;;16.15;11.23;;;;;;;16.29;59.74;93947.56;5047062;28;20024;-74
2023/06/30 04:46:56;;;;;;;12.25;10.02;;;;;;;16.76;57.87;93957.56;5053501;28;20554;-75
2023/06/30 04:49:22;;;;;;;13.35;11.02;;;;;;;16.94;57.81;93958.75;5052659;28;20035;-74
2023/06/30 04:51:47;;;;;;;11.60;9.93;;;;;;;17.16;57.05;93965.41;5052293;28;20024;-73
2023/06/30 04:54:12;;;;;;;14.05;10.98;;;;;;;17.30;56.09;93964.97;5051224;28;20051;-74
2023/06/30 04:56:38;;;;;;;13.02;11.23;;;;;;;17.04;55.51;93952.06;5052369;28;20028;-73
2023/06/30 04:59:04;;;;;;;11.95;10.70;;;;;;;16.92;56.11;93944.09;5050306;28;20047;-75
2023/06/30 05:01:31;;;;;;;11.25;10.15;;;;;;;17.02;55.68;93960.47;5049826;28;20877;-75
2023/06/30 05:03:57;;;;;;;19.23;11.80;;;;;;;16.97;55.88;93971.47;5052887;28;20047;-74
2023/06/30 05:06:22;;;;;;;11.38;10.18;;;;;;;17.10;56.03;93978.31;5048699;28;20127;-74
2023/06/30 05:08:48;;;;;;;13.10;11.35;;;;;;;17.18;56.67;93963.94;5050874;28;20029;-74
2023/06/30 05:11:13;;;;;;;16.05;10.57;;;;;;;17.29;55.96;93949.94;5051885;28;20037;-74
2023/06/30 05:13:39;;;;;;;11.90;10.55;;;;;;;17.01;56.34;93932.03;5054154;28;20048;-75
2023/06/30 05:16:04;;;;;;;14.05;11.32;;;;;;;17.22;56.15;93971.28;5048677;28;20031;-74
2023/06/30 05:18:29;;;;;;;11.68;10.45;;;;;;;17.28;56.12;93945.69;5051546;28;20040;-74
2023/06/30 05:20:55;;;;;;;18.25;11.15;;;;;;;17.32;55.32;93957.31;5050564;28;20404;-75
2023/06/30 05:23:20;;;;;;;12.20;10.77;;;;;;;17.42;56.21;93973.66;5043620;28;20043;-74
2023/06/30 05:25:46;;;;;;;11.90;10.70;;;;;;;17.40;54.66;93970.56;5049953;28;20580;-74
2023/06/30 05:28:11;;;;;;;13.68;10.85;;;;;;;17.23;55.36;93954.81;5054616;28;20028;-75
2023/06/30 05:30:38;;;;;;;16.00;11.13;;;;;;;17.66;55.68;93971.84;5048748;28;20126;-75
2023/06/30 05:33:03;;;;;;;14.38;10.77;;;;;;;17.57;54.91;93942.47;5050558;28;20468;-74
2023/06/30 05:35:29;;;;;;;15.80;12.23;;;;;;;17.57;53.95;93963.97;5050778;28;20032;-75
2023/06/30 05:37:55;;;;;;;13.00;11.27;;;;;;;17.63;54.28;93981.41;5054013;28;20036;-75
2023/06/30 05:40:21;;;;;;;12.57;10.68;;;;;;;17.80;54.17;93978.28;5052044;28;20036;-75
2023/06/30 05:42:46;;;;;;;12.75;10.35;;;;;;;17.66;55.11;93980.69;5051507;28;20020;-74
2023/06/30 05:45:11;;;;;;;14.13;11.02;;;;;;;17.93;55.05;93977.06;5053689;28;20078;-75
2023/06/30 05:47:37;;;;;;;13.40;9.80;;;;;;;18.10;54.17;93975.81;5054347;28;20037;-74
2023/06/30 05:50:03;;;;;;;13.10;10.30;;;;;;;18.12;53.85;93983.53;5053465;28;20126;-74
2023/06/30 05:52:28;;;;;;;18.42;11.38;;;;;;;18.13;53.21;93979.72;5048340;28;20032;-72
2023/06/30 05:54:53;;;;;;;14.32;10.63;;;;;;;17.75;53.64;93975.09;5049998;28;20008;-72
2023/06/30 05:57:19;;;;;;;13.75;10.95;;;;;;;18.09;52.66;93973.50;5050013;28;21194;-72
2023/06/30 05:59:44;;;;;;;12.52;10.38;;;;;;;18.11;52.56;93987.38;5065765;28;20063;-73
2023/06/30 06:02:10;;;;;;;14.85;10.90;;;;;;;17.50;54.73;93996.13;5048890;28;20040;-73
2023/06/30 06:04:35;;;;;;;12.77;10.73;;;;;;;17.96;54.41;93986.31;5049873;28;20444;-73
2023/06/30 06:07:03;;;;;;;14.73;11.07;;;;;;;17.87;54.74;93981.13;5047363;28;20029;-72
2023/06/30 06:09:28;;;;;;;14.20;10.95;;;;;;;17.92;54.85;93986.22;5048682;28;20888;-73
2023/06/30 06:11:54;;;;;;;15.20;10.45;;;;;;;18.27;54.96;93990.75;5050193;28;20102;-73
2023/06/30 06:14:19;;;;;;;15.15;9.73;;;;;;;18.50;54.21;93999.63;5049787;28;20071;-72
2023/06/30 06:16:45;;;;;;;11.48;10.40;;;;;;;18.40;53.60;93998.31;5047041;28;20035;-73
2023/06/30 06:19:12;;;;;;;10.70;9.70;;;;;;;18.77;52.40;93987.03;5051623;28;20078;-72
2023/06/30 06:21:37;;;;;;;13.40;10.48;;;;;;;18.85;51.97;93976.00;5048677;28;20060;-73
2023/06/30 06:24:03;;;;;;;14.07;10.55;;;;;;;18.86;52.02;93977.56;5045765;28;20136;-72
2023/06/30 06:26:28;;;;;;;11.32;9.95;;;;;;;19.05;51.48;93981.31;5042576;28;20029;-72
2023/06/30 06:28:54;;;;;;;13.00;10.55;;;;;;;19.15;51.43;93981.47;5046734;28;20040;-73
2023/06/30 06:31:19;;;;;;;10.88;9.75;;;;;;;19.26;50.98;93987.78;5048006;28;20098;-73
2023/06/30 06:33:44;;;;;;;11.93;9.88;;;;;;;19.17;51.52;93965.69;5046965;28;20047;-73
2023/06/30 06:36:10;;;;;;;14.05;10.52;;;;;;;19.07;52.22;93984.41;5042512;28;20515;-73
2023/06/30 06:38:36;;;;;;;11.63;10.43;;;;;;;19.38;51.15;93984.13;5049442;28;20074;-72
2023/06/30 06:41:01;;;;;;;17.60;10.43;;;;;;;19.47;50.24;93976.56;5049314;28;20514;-72
2023/06/30 06:43:27;;;;;;;14.93;10.50;;;;;;;19.58;50.87;93977.47;5047230;28;20025;-74
2023/06/30 06:45:53;;;;;;;12.50;11.00;;;;;;;19.53;50.73;93963.53;5047586;28;20035;-73
2023/06/30 06:48:20;;;;;;;15.25;11.80;;;;;;;19.49;51.35;93982.38;5045927;28;20040;-74
2023/06/30 06:50:58;;;;;;;15.45;10.35;;;;;;;19.64;51.21;93986.03;5047783;28;20086;-72
2023/06/30 06:53:25;;;;;;;10.90;9.63;;;;;;;19.86;50.44;93981.69;5027656;28;20049;-72
2023/06/30 06:55:52;;;;;;;13.45;9.85;;;;;;;19.69;49.37;93966.84;5049776;28;20049;-71
2023/06/30 06:58:19;;;;;;;11.55;9.48;;;;;;;19.90;48.68;93977.09;5050069;28;20356;-72
2023/06/30 07:00:46;;;;;;;13.07;10.05;;;;;;;19.74;48.50;93966.50;5049847;28;20041;-72
2023/06/30 07:03:11;;;;;;;11.57;10.32;;;;;;;19.98;49.57;93973.34;5047669;28;20890;-72
2023/06/30 07:05:39;;;;;;;12.15;9.65;;;;;;;19.67;47.99;93953.69;5052064;28;20047;-72
2023/06/30 07:08:05;;;;;;;11.13;9.50;;;;;;;19.81;49.67;93968.50;5042183;28;20804;-72
2023/06/30 07:10:30;;;;;;;13.00;9.13;;;;;;;19.93;48.80;93965.56;5046885;28;20102;-72
2023/06/30 07:12:56;;;;;;;11.35;10.05;;;;;;;20.00;48.35;93962.94;5046662;28;20064;-71
2023/06/30 07:15:22;;;;;;;11.13;9.35;;;;;;;20.24;48.78;93964.41;5037879;28;20392;-72
2023/06/30 07:17:47;;;;;;;13.13;9.27;;;;;;;20.36;49.03;93961.44;5047951;28;20056;-72
2023/06/30 07:20:13;;;;;;;9.88;8.15;;;;;;;20.34;47.18;93955.63;5051138;28;20160;-71
2023/06/30 07:22:38;;;;;;;12.43;7.82;;;;;;;20.28;47.59;93957.91;5046844;28;20012;-73
2023/06/30 07:25:06;;;;;;;9.30;7.40;;;;;;;20.53;46.50;93972.41;5036217;28;20079;-72
2023/06/30 07:27:31;;;;;;;10.48;8.18;;;;;;;20.54;46.46;93952.34;5042876;28;20056;-72
2023/06/30 07:29:57;;;;;;;9.98;8.98;;;;;;;20.58;46.97;93963.97;5049680;28;20553;-73
2023/06/30 07:32:22;;;;;;;9.68;7.07;;;;;;;20.51;46.85;93958.50;5058868;28;20040;-73
2023/06/30 07:34:48;;;;;;;8.18;7.47;;;;;;;20.67;46.51;93955.56;5054714;28;20028;-73
2023/06/30 07:37:13;;;;;;;8.02;6.22;;;;;;;20.67;45.90;93943.97;5045092;28;20028;-72
2023/06/30 07:39:39;;;;;;;6.00;5.18;;;;;;;20.43;44.81;93950.72;5051516;28;20040;-72
2023/06/30 07:42:04;;;;;;;5.28;4.88;;;;;;;20.57;43.66;93951.63;5047742;28;20052;-72
2023/06/30 07:44:31;;;;;;;5.03;4.55;;;;;;;20.51;42.56;93955.81;5043460;28;20416;-75
2023/06/30 07:46:56;;;;;;;3.85;3.00;;;;;;;20.66;42.73;93955.94;5052786;28;20516;-74
2023/06/30 07:49:22;;;;;;;4.10;3.70;;;;;;;20.75;41.78;93959.88;5048239;28;20028;-71
2023/06/30 07:51:47;;;;;;;5.28;4.18;;;;;;;20.43;42.88;93962.28;5048816;28;20027;-72
2023/06/30 07:54:13;;;;;;;6.00;4.22;;;;;;;20.41;43.27;93956.47;5049862;28;20052;-73
2023/06/30 07:56:39;;;;;;;5.68;5.03;;;;;;;20.71;43.98;93963.69;5051182;28;20119;-73
2023/06/30 07:59:05;;;;;;;7.40;6.28;;;;;;;20.67;44.72;93958.25;5051435;28;20037;-72
2023/06/30 08:01:30;;;;;;;6.53;5.88;;;;;;;20.81;45.31;93946.78;5052298;28;20031;-73
2023/06/30 08:03:56;;;;;;;7.95;4.78;;;;;;;20.65;43.03;93930.03;5052898;28;20490;-71
2023/06/30 08:06:21;;;;;;;7.85;6.40;;;;;;;20.75;44.18;93935.53;5052129;28;21003;-72
2023/06/30 08:08:46;;;;;;;9.23;6.65;;;;;;;20.80;45.09;93948.72;5049036;28;20434;-72
2023/06/30 08:11:12;;;;;;;8.23;7.05;;;;;;;20.65;45.35;93941.63;5050250;28;20045;-72
2023/06/30 08:13:37;;;;;;;8.43;5.55;;;;;;;20.65;43.50;93949.75;5055025;28;20955;-72
2023/06/30 08:16:03;;;;;;;6.90;6.20;;;;;;;20.57;44.79;93946.22;5051557;28;20205;-72
2023/06/30 08:18:29;;;;;;;7.15;5.20;;;;;;;20.85;43.81;93947.59;5047346;28;20777;-73
2023/06/30 08:20:57;;;;;;;6.15;5.55;;;;;;;20.94;43.19;93931.84;5048734;28;20515;-72
2023/06/30 08:23:23;;;;;;;11.93;7.15;;;;;;;20.50;43.50;93938.03;5051884;28;20028;-72
2023/06/30 08:25:49;;;;;;;5.90;5.22;;;;;;;20.66;43.56;93926.97;5049573;28;20047;-72
2023/06/30 08:28:14;;;;;;;9.70;5.25;;;;;;;20.91;43.69;93916.38;5053046;28;20050;-72
2023/06/30 08:30:39;;;;;;;6.70;5.53;;;;;;;20.68;43.11;93930.06;5050204;28;20106;-72
2023/06/30 08:33:05;;;;;;;7.53;5.50;;;;;;;20.75;43.91;93923.94;5049022;28;20070;-72
2023/06/30 08:35:30;;;;;;;8.13;5.32;;;;;;;20.86;43.80;93927.53;5048634;28;20534;-72
2023/06/30 08:37:56;;;;;;;9.00;6.10;;;;;;;20.59;43.46;93913.41;5052117;28;20059;-73
2023/06/30 08:40:25;;;;;;;7.43;5.93;;;;;;;20.47;43.75;93911.00;5048932;28;20032;-72
2023/06/30 08:42:53;;;;;;;7.32;5.68;;;;;;;20.54;42.67;93903.72;5052677;28;20028;-72
2023/06/30 08:45:20;;;;;;;9.02;5.68;;;;;;;20.71;42.32;93913.13;5049318;28;20051;-72
2023/06/30 08:47:46;;;;;;;5.22;4.82;;;;;;;20.67;43.49;93900.75;5051309;28;20054;-73
2023/06/30 08:50:13;;;;;;;5.22;4.80;;;;;;;20.70;43.87;93899.97;5046174;28;20537;-73
2023/06/30 08:52:38;;;;;;;7.13;5.25;;;;;;;20.59;43.16;93906.06;5050395;28;20025;-73
2023/06/30 08:55:07;;;;;;;7.78;6.18;;;;;;;20.38;43.86;93905.91;5049543;28;20036;-73
2023/06/30 08:57:33;;;;;;;6.72;4.93;;;;;;;20.48;43.49;93890.94;5050286;28;20036;-71
2023/06/30 08:59:58;;;;;;;6.20;5.55;;;;;;;20.81;44.28;93892.72;5050254;28;20028;-73
2023/06/30 09:02:25;;;;;;;7.43;5.70;;;;;;;20.95;42.62;93895.56;5050847;28;20473;-73
2023/06/30 09:04:51;;;;;;;11.90;6.38;;;;;;;20.93;42.78;93892.44;5047746;28;20499;-72
2023/06/30 09:07:25;;;;;;;6.18;5.15;;;;;;;20.74;43.39;93895.38;5048999;28;20040;-71
2023/06/30 09:09:56;;;;;;;8.30;5.97;;;;;;;20.34;44.68;93901.59;5047902;28;20070;-72
2023/06/30 09:12:22;;;;;;;8.15;5.97;;;;;;;20.47;44.34;93890.16;5049716;28;20044;-72
2023/06/30 09:14:52;;;;;;;6.20;5.10;;;;;;;20.79;43.63;93892.31;5051529;28;20848;-73
2023/06/30 09:17:17;;;;;;;7.72;5.63;;;;;;;20.87;43.42;93902.84;5052673;28;20114;-73
2023/06/30 09:19:44;;;;;;;6.68;6.03;;;;;;;20.34;43.96;93882.69;5049175;28;20669;-73
2023/06/30 09:22:10;;;;;;;5.95;5.35;;;;;;;20.69;44.08;93903.81;5050714;28;20025;-72
2023/06/30 09:24:36;;;;;;;7.72;5.13;;;;;;;20.97;44.13;93896.72;5052473;28;20525;-72
2023/06/30 09:27:01;;;;;;;6.10;4.82;;;;;;;21.12;44.27;93888.72;5032858;28;20044;-72
2023/06/30 09:29:31;;;;;;;7.15;5.10;;;;;;;21.34;44.17;93890.38;5066988;28;20603;-72
2023/06/30 09:32:00;;;;;;;8.60;6.13;;;;;;;21.39;42.99;93893.50;5048602;28;20036;-71
2023/06/30 09:34:26;;;;;;;5.78;5.20;;;;;;;21.37;43.84;93879.56;5047128;28;20033;-72
2023/06/30 09:36:54;;;;;;;9.88;6.10;;;;;;;21.44;43.35;93868.78;5050184;28;20032;-72
2023/06/30 09:39:20;;;;;;;5.68;5.18;;;;;;;21.52;43.22;93885.03;5051500;28;20059;-73
2023/06/30 09:41:47;;;;;;;7.82;5.90;;;;;;;21.78;45.51;93880.16;5047493;28;20036;-71
2023/06/30 09:44:14;;;;;;;7.68;5.97;;;;;;;21.54;43.03;93880.03;5048126;28;20127;-72
2023/06/30 09:46:47;;;;;;;6.80;5.95;;;;;;;21.49;42.39;93883.88;5045562;28;20037;-72
2023/06/30 09:49:30;;;;;;;8.30;6.25;;;;;;;21.21;45.50;93881.81;5043047;28;20032;-72
2023/06/30 09:51:56;;;;;;;6.97;5.80;;;;;;;21.75;42.55;93880.94;5041513;28;20052;-72
2023/06/30 09:54:23;;;;;;;5.95;5.35;;;;;;;21.70;42.48;93864.28;5045662;28;20055;-73
2023/06/30 09:56:58;;;;;;;9.80;5.80;;;;;;;21.92;45.05;93876.69;5045820;28;20132;-72
2023/06/30 09:59:24;;;;;;;9.20;5.75;;;;;;;21.96;42.46;93866.66;5047980;28;20556;-72
2023/06/30 10:01:54;;;;;;;6.63;5.50;;;;;;;21.81;43.29;93865.06;5041757;28;20389;-72
2023/06/30 10:04:19;;;;;;;6.25;5.63;;;;;;;21.71;42.74;93855.75;5048176;28;20036;-72
2023/06/30 10:06:46;;;;;;;6.28;5.13;;;;;;;21.79;43.24;93853.84;5044363;28;20033;-73
2023/06/30 10:09:13;;;;;;;8.85;5.97;;;;;;;21.88;42.58;93856.97;5046948;28;20393;-71
2023/06/30 10:11:41;;;;;;;8.52;6.00;;;;;;;21.69;41.93;93838.34;5047251;28;20033;-72
2023/06/30 10:14:06;;;;;;;9.70;5.70;;;;;;;21.86;42.61;93853.88;5044180;28;20045;-72
2023/06/30 10:16:33;;;;;;;9.90;6.07;;;;;;;21.88;41.49;93843.44;5049174;28;20514;-73
2023/06/30 10:19:01;;;;;;;8.45;5.75;;;;;;;21.95;41.50;93831.84;5046867;28;20016;-72
2023/06/30 10:21:27;;;;;;;7.50;5.65;;;;;;;21.45;41.80;93832.47;5044604;28;20032;-72
2023/06/30 10:23:53;;;;;;;7.90;5.60;;;;;;;21.85;42.63;93844.22;5027565;28;20041;-72
2023/06/30 10:26:21;;;;;;;6.40;5.63;;;;;;;21.73;40.78;93841.84;5037463;28;20044;-72
2023/06/30 10:28:47;;;;;;;6.60;5.90;;;;;;;21.82;43.51;93834.91;5047624;28;20044;-72
2023/06/30 10:31:13;;;;;;;6.07;5.40;;;;;;;21.87;41.87;93820.22;5046543;28;20037;-72
2023/06/30 10:33:39;;;;;;;6.85;5.68;;;;;;;21.77;42.29;93813.63;5044777;28;20516;-73
2023/06/30 10:36:06;;;;;;;8.55;5.80;;;;;;;21.89;41.02;93834.16;5049533;28;20087;-71
2023/06/30 10:38:33;;;;;;;11.35;5.50;;;;;;;21.68;41.45;93828.69;5045928;28;20151;-72
2023/06/30 10:41:12;;;;;;;6.53;5.70;;;;;;;22.07;41.01;93815.22;5049708;28;20039;-72
2023/06/30 10:44:03;;;;;;;8.05;5.38;;;;;;;22.25;41.37;93816.81;5045931;28;20592;-72
2023/06/30 10:46:47;;;;;;;9.27;5.22;;;;;;;21.93;41.91;93815.97;5050123;28;20029;-73
2023/06/30 10:49:17;;;;;;;11.90;5.57;;;;;;;21.87;40.21;93806.69;5050734;28;20020;-72
2023/06/30 10:51:50;;;;;;;6.28;5.68;;;;;;;21.83;40.84;93795.84;5048612;28;20306;-72
2023/06/30 10:54:49;;;;;;;6.20;5.38;;;;;;;22.11;41.57;93797.81;5051479;28;20056;-73
2023/06/30 10:57:39;;;;;;;10.60;5.90;;;;;;;22.38;42.01;93789.34;5045645;28;20504;-72
2023/06/30 11:00:12;;;;;;;7.50;5.97;;;;;;;22.24;40.32;93788.16;5037782;28;20123;-72
2023/06/30 11:02:50;;;;;;;8.02;5.85;;;;;;;22.41;42.97;93783.13;5053358;28;20032;-73
2023/06/30 11:05:19;;;;;;;9.88;5.65;;;;;;;22.63;41.22;93798.22;5053561;28;20052;-73
2023/06/30 11:07:52;;;;;;;5.97;5.35;;;;;;;22.81;41.46;93798.97;5051783;28;20044;-73
2023/06/30 11:10:32;;;;;;;9.38;6.35;;;;;;;22.73;39.45;93795.47;5055905;28;20036;-73
2023/06/30 11:13:03;;;;;;;6.10;5.53;;;;;;;22.39;40.66;93780.06;5052766;28;20167;-73
2023/06/30 11:15:37;;;;;;;11.10;6.18;;;;;;;22.77;41.06;93789.28;5049505;28;20036;-72
2023/06/30 11:18:24;;;;;;;5.82;5.30;;;;;;;22.52;40.95;93767.66;5053598;28;20121;-73
2023/06/30 11:21:03;;;;;;;8.07;5.30;;;;;;;22.52;40.80;93778.47;5049960;28;20093;-72
2023/06/30 11:23:33;;;;;;;6.18;5.15;;;;;;;22.29;40.90;93776.94;5051188;28;20039;-72
2023/06/30 11:26:11;;;;;;;6.53;5.93;;;;;;;22.60;41.59;93774.59;5052411;28;20090;-73
2023/06/30 11:28:39;;;;;;;6.18;5.18;;;;;;;22.55;41.07;93761.44;5051520;28;20028;-74